Terminal Aerodrome Forecast
Issued by NWS

Home | Current Version | Previous Version | Text Only | Print | Product List | Glossary On
Versions: 1 2 3 4 5 6 7 8 9 10 11 12 13
000
FTUS44 KLZK 210533
TAFLIT
TAF
KLIT 210533Z 2106/2206 13004KT P6SM SCT100 BKN250
     FM211200 15008KT P6SM BKN040 BKN250
     FM211600 17009G16KT P6SM VCSH SCT035 BKN060 BKN250
     FM220000 16009G16KT P6SM VCSH BKN050 BKN250=

USA.gov is the U.S. government's official web portal to all federal, state and local government web resources and services.